Details From EGLL - London Heathrow
To TKPK - Saint Kitts Robert L Bradshaw
Flight Number -
Tags Generated
Created
Modified
Stats Distance 3,566 nm / 6,604 km
Max Altitude 0 ft / 0 m
Waypoints 4
Social Downloads 2
Likes 0
Share VATSIM

Download

Looking for another format? Having issues loading an existing format? Contact us
Advertisement - Login to hide

Notes

Generated

Route

EGLL INSUN ELOPO TKPK

ID Type Via Altitude Latitude Longitude Leg Dist Tot Dist Heading (true) Name
O EGLL APT - 0 ft / 0 m 51.46477˚ -0.48695˚ - 0 nm - -
INSUN FIX - 0 ft / 0 m 50.39577˚ -6.32430˚ 230 nm 230 nm 256° / 252° -
ELOPO FIX - 0 ft / 0 m 17.65006˚ -62.55439˚ 3312 nm 3542 nm 255° / 220° -
O TKPK APT - 0 ft / 0 m 17.30550˚ -62.72783˚ 22 nm 3565 nm 206° / 206° -

Altitude Profile

Advertisement - Login to hide

Weather


0- 5 10 15 20 25 30 35+ Temperature / ° C

Clouds and Precipitation
Forecast for 2017-12-11 18:00 UTC. Updated 2 hours ago

Ground ~20,000 ft ~40,000 ft Winds

EGLL

Details ICAO EGLL (LHR)
Name London Heathrow
Region United Kingdom
Timezone Europe/London (UTC+0.0)
Stats Elevation 83 ft / 25 m (AMSL)
Location 51.471218° -0.460978°
Runways 2
Magnetic Variation 0.561° W

METAR

EGLL 111450Z AUTO 35010KT 310V030 9999 NCD 03/00 Q0985 NOSIG

Decode

TAF

TAF EGLL 111101Z 1112/1218 03013KT 9999 BKN025 TEMPO 1112/1116 02016G28KT 4000 -RASN BKN006 PROB30 TEMPO 1112/1116 1200 SN BKN003 BECMG 1113/1116 33012KT BECMG 1116/1119 CAVOK PROB30 TEMPO 1116/1119 34015G26KT BECMG 1200/1203 27004KT PROB30 TEMPO 1203/1209 6000 PROB30 1216/1218 7000

Decode

Departure Runways

ID Width Length Bearing (true) Bearing (mag) Surface Threshold Offset Overrun Length
09L 164 ft / 50 m 12,811 ft / 3,905 m 89.64° 90.20° Asphalt 1,004 ft / 306 m 0 ft / 0 m
09R 164 ft / 50 m 12,019 ft / 3,663 m 89.67° 90.23° Asphalt 1,007 ft / 307 m 0 ft / 0 m
27L 164 ft / 50 m 12,019 ft / 3,663 m 269.71° 270.27° Asphalt 0 ft / 0 m 69 ft / 21 m
27R 164 ft / 50 m 12,811 ft / 3,905 m 269.69° 270.25° Asphalt 0 ft / 0 m 69 ft / 21 m

TKPK

Details ICAO TKPK (SKB)
Name St. Kitts/Bradshaw Intl
Region Saint Kitts and Nevis
Timezone America/St_Kitts (UTC-4.0)
Stats Elevation 170 ft / 52 m (AMSL)
Location 17.311194° -62.718666°
Runways 1
Magnetic Variation 14.451° W

METAR

TKPK 111500Z 07013KT 9999 SCT021 BKN044 28/22 Q1013

Decode

TAF

TAF TKPK 111141Z 1112/1212 05008KT P6SM VCSH FEW012 FEW018 FM120600 06008KT P6SM BKN018

Decode

Destination Runways

ID Width Length Bearing (true) Bearing (mag) Surface Threshold Offset Overrun Length
07 148 ft / 45 m 7,620 ft / 2,323 m 56.95° 71.40° Asphalt 200 ft / 61 m 0 ft / 0 m
25 148 ft / 45 m 7,620 ft / 2,323 m 236.95° 251.40° Asphalt 0 ft / 0 m 0 ft / 0 m

Popular Alternatives